Time;durP1;ratioP1;P1;durP2;ratioP2;P2;SDS_P1;SDS_P2;PMS_P1;PMS_P2;Temp;Humidity;BMP_temperature;BMP_pressure;BME280_temperature;BME280_humidity;BME280_pressure;Samples;Min_cycle;Max_cycle;Signal;HPM_P1;HPM_P2
2022/05/18 00:01:34;;;;;;;4.77;3.00;;;21.80;88.30;;;;;;4858655;29;20476;-84
2022/05/18 00:04:05;;;;;;;3.57;2.57;;;21.70;89.00;;;;;;4864533;29;20561;-83
2022/05/18 00:06:35;;;;;;;4.27;3.87;;;21.80;89.10;;;;;;4864317;29;20485;-82
2022/05/18 00:09:04;;;;;;;2.80;2.50;;;22.10;88.60;;;;;;4866365;29;20828;-83
2022/05/18 00:11:32;;;;;;;2.50;2.30;;;22.20;87.80;;;;;;4862595;29;20908;-84
2022/05/18 00:14:00;;;;;;;5.40;2.83;;;22.00;88.60;;;;;;4859207;29;20456;-84
2022/05/18 00:16:27;;;;;;;3.60;2.00;;;21.80;89.40;;;;;;4865404;29;20487;-84
2022/05/18 00:19:11;;;;;;;3.00;2.70;;;21.90;89.90;;;;;;4872499;29;20465;-86
2022/05/18 00:21:38;;;;;;;3.63;2.53;;;22.00;89.10;;;;;;4870242;29;20449;-85
2022/05/18 00:24:07;;;;;;;4.50;3.03;;;22.10;88.80;;;;;;4881502;29;20511;-84
2022/05/18 00:26:33;;;;;;;2.40;2.20;;;22.00;88.80;;;;;;4869239;29;20493;-86
2022/05/18 00:29:00;;;;;;;3.23;2.50;;;22.00;89.10;;;;;;4866451;29;20475;-87
2022/05/18 00:31:30;;;;;;;5.40;2.60;;;22.00;88.90;;;;;;4882578;29;20452;-83
2022/05/18 00:34:04;;;;;;;3.43;2.47;;;21.90;89.20;;;;;;4868989;29;20578;-89
2022/05/18 00:36:34;;;;;;;4.23;2.90;;;21.80;89.80;;;;;;4881285;29;20463;-84
2022/05/18 00:39:07;;;;;;;4.70;2.67;;;21.60;90.50;;;;;;4866978;29;20516;-85
2022/05/18 00:41:37;;;;;;;4.27;2.87;;;21.60;90.20;;;;;;4868576;29;20469;-81
2022/05/18 00:44:07;;;;;;;3.27;2.67;;;21.70;90.30;;;;;;4865415;29;20499;-84
2022/05/18 00:46:35;;;;;;;2.73;2.53;;;21.70;90.40;;;;;;4868078;29;20484;-83
2022/05/18 00:49:06;;;;;;;3.70;2.83;;;21.50;90.80;;;;;;4867085;29;21492;-83
2022/05/18 00:51:48;;;;;;;4.07;3.53;;;21.30;91.10;;;;;;4844386;29;20457;-84
2022/05/18 00:54:20;;;;;;;3.40;2.70;;;21.30;91.50;;;;;;4855399;29;20468;-85
2022/05/18 00:56:49;;;;;;;3.80;2.97;;;21.40;91.40;;;;;;4867396;29;20488;-84
2022/05/18 00:59:20;;;;;;;4.47;3.07;;;21.40;91.50;;;;;;4866552;29;20465;-84
2022/05/18 01:01:49;;;;;;;3.07;2.43;;;21.20;91.80;;;;;;4869016;29;20476;-84
2022/05/18 01:04:16;;;;;;;4.10;2.70;;;21.40;92.20;;;;;;4867000;29;20480;-82
2022/05/18 01:06:50;;;;;;;3.03;2.83;;;21.60;91.90;;;;;;4864287;29;20512;-86
2022/05/18 01:09:34;;;;;;;3.87;3.10;;;21.60;91.60;;;;;;4879574;29;20487;-85
2022/05/18 01:12:00;;;;;;;3.67;3.07;;;21.60;91.60;;;;;;4868202;29;20452;-84
2022/05/18 01:14:32;;;;;;;3.00;2.80;;;21.50;92.00;;;;;;4866791;29;20477;-88
2022/05/18 01:16:59;;;;;;;3.33;3.03;;;21.40;92.20;;;;;;4869822;29;20812;-85
2022/05/18 01:19:35;;;;;;;4.60;2.80;;;21.30;92.40;;;;;;4865654;29;20472;-82
2022/05/18 01:22:32;;;;;;;4.00;2.80;;;21.20;92.50;;;;;;4867962;29;20455;-83
2022/05/18 01:25:40;;;;;;;3.67;3.37;;;21.30;92.60;;;;;;4876645;29;20523;-83
2022/05/18 01:28:08;;;;;;;3.47;2.90;;;21.30;92.60;;;;;;4851738;29;20463;-83
2022/05/18 01:30:37;;;;;;;3.77;3.40;;;21.40;92.50;;;;;;4863952;29;20457;-86
2022/05/18 01:33:07;;;;;;;3.63;3.20;;;21.40;92.40;;;;;;4865176;29;20492;-85
2022/05/18 01:35:40;;;;;;;7.47;3.20;;;21.20;92.60;;;;;;4859635;29;20493;-84
2022/05/18 01:38:12;;;;;;;3.30;3.00;;;21.10;93.00;;;;;;4881745;29;20464;-85
2022/05/18 01:40:41;;;;;;;3.23;3.03;;;21.20;92.80;;;;;;4865818;29;20472;-85
2022/05/18 01:43:16;;;;;;;3.17;2.87;;;21.40;92.70;;;;;;4876159;29;20577;-83
2022/05/18 01:45:43;;;;;;;4.20;3.70;;;21.30;92.80;;;;;;4866433;29;20512;-84
2022/05/18 01:48:12;;;;;;;3.63;3.33;;;21.30;92.80;;;;;;4866731;29;20481;-85
2022/05/18 01:50:41;;;;;;;5.10;3.50;;;21.20;92.90;;;;;;4860867;29;20465;-82
2022/05/18 01:53:09;;;;;;;4.07;3.67;;;21.00;93.20;;;;;;4876185;29;20454;-84
2022/05/18 01:55:36;;;;;;;6.23;3.40;;;21.00;93.50;;;;;;4867144;29;20488;-85
2022/05/18 01:58:04;;;;;;;3.60;3.30;;;21.00;93.80;;;;;;4867422;29;22026;-83
2022/05/18 02:00:32;;;;;;;4.30;3.90;;;20.80;94.10;;;;;;4863268;29;20461;-85
2022/05/18 02:02:59;;;;;;;5.83;4.07;;;20.70;94.20;;;;;;4856657;29;20464;-85
2022/05/18 02:05:28;;;;;;;3.53;3.20;;;20.80;94.30;;;;;;4863531;29;20514;-87
2022/05/18 02:07:58;;;;;;;3.83;3.43;;;20.80;94.30;;;;;;4856853;29;20461;-86
2022/05/18 02:10:30;;;;;;;4.80;4.37;;;20.80;94.60;;;;;;4858161;29;20470;-83
2022/05/18 02:13:06;;;;;;;4.00;3.70;;;20.80;94.60;;;;;;4856153;29;20484;-86
2022/05/18 02:15:41;;;;;;;3.77;3.47;;;20.80;94.50;;;;;;4855596;29;20488;-84
2022/05/18 02:18:08;;;;;;;3.93;3.47;;;20.80;94.60;;;;;;4857034;29;20448;-85
2022/05/18 02:20:43;;;;;;;5.30;4.20;;;20.60;94.90;;;;;;4857282;29;20472;-84
2022/05/18 02:23:12;;;;;;;5.43;3.77;;;20.50;94.90;;;;;;4857554;29;21822;-86
2022/05/18 02:25:46;;;;;;;4.07;3.63;;;20.50;95.10;;;;;;4852841;29;20489;-83
2022/05/18 02:28:13;;;;;;;3.70;3.10;;;20.50;95.10;;;;;;4873034;29;20490;-83
2022/05/18 02:30:46;;;;;;;3.67;3.40;;;20.50;95.20;;;;;;4853914;29;20552;-84
2022/05/18 02:33:12;;;;;;;3.90;3.50;;;20.40;95.30;;;;;;4853713;29;20468;-84
2022/05/18 02:35:52;;;;;;;4.57;4.17;;;20.30;95.50;;;;;;4855837;29;20838;-85
2022/05/18 02:38:20;;;;;;;3.40;3.20;;;20.40;95.80;;;;;;4872417;29;20468;-83
2022/05/18 02:40:46;;;;;;;3.67;3.37;;;20.40;95.70;;;;;;4853788;29;20468;-85
2022/05/18 02:43:13;;;;;;;4.73;3.80;;;20.30;95.80;;;;;;4855438;29;20475;-84
2022/05/18 02:45:40;;;;;;;4.13;3.57;;;20.30;96.00;;;;;;4851103;29;20853;-81
2022/05/18 02:48:19;;;;;;;4.20;3.83;;;20.30;95.80;;;;;;4854604;29;20501;-81
2022/05/18 02:50:47;;;;;;;3.93;3.53;;;20.30;96.10;;;;;;4853544;29;20446;-81
2022/05/18 02:53:20;;;;;;;3.93;3.50;;;20.30;96.10;;;;;;4867328;29;20464;-84
2022/05/18 02:56:06;;;;;;;4.50;4.00;;;20.30;96.00;;;;;;4854992;29;20668;-83
2022/05/18 02:59:03;;;;;;;5.17;4.10;;;20.30;96.10;;;;;;4854387;29;21432;-83
2022/05/18 03:01:30;;;;;;;4.53;3.93;;;20.30;96.20;;;;;;4856224;29;21853;-82
2022/05/18 03:03:57;;;;;;;4.50;3.63;;;20.40;96.20;;;;;;4853262;29;20497;-84
2022/05/18 03:06:59;;;;;;;5.37;3.40;;;20.50;96.10;;;;;;4850836;29;20493;-85
2022/05/18 03:09:55;;;;;;;3.60;3.30;;;20.50;96.00;;;;;;4848712;29;20821;-85
2022/05/18 03:12:21;;;;;;;3.93;3.63;;;20.60;95.80;;;;;;4852432;29;20475;-85
2022/05/18 03:14:48;;;;;;;6.47;3.73;;;20.50;95.70;;;;;;4874583;29;20556;-84
2022/05/18 03:17:15;;;;;;;5.57;4.43;;;20.40;95.90;;;;;;4856156;29;20531;-84
2022/05/18 03:19:42;;;;;;;4.60;4.17;;;20.20;95.90;;;;;;4856166;29;20467;-83
2022/05/18 03:25:05;;;;;;;4.30;3.60;;;20.20;96.10;;;;;;4854527;29;20919;-82
2022/05/18 03:27:43;;;;;;;4.33;3.93;;;20.10;96.20;;;;;;4853510;29;20472;-83
2022/05/18 03:30:13;;;;;;;4.33;3.87;;;20.30;96.20;;;;;;4860190;29;21557;-82
2022/05/18 03:32:40;;;;;;;6.07;3.93;;;20.40;95.90;;;;;;4851382;29;20498;-83
2022/05/18 03:35:14;;;;;;;4.83;4.00;;;20.50;95.70;;;;;;4854123;29;20488;-85
2022/05/18 03:37:41;;;;;;;4.73;3.77;;;20.40;95.80;;;;;;4870093;29;20464;-83
2022/05/18 03:40:08;;;;;;;5.20;3.73;;;20.40;95.60;;;;;;4858923;29;20563;-84
2022/05/18 03:42:35;;;;;;;3.93;3.53;;;20.40;95.50;;;;;;4874774;29;20468;-84
2022/05/18 03:45:02;;;;;;;5.83;3.50;;;20.30;95.70;;;;;;4860668;29;20599;-84
2022/05/18 03:47:47;;;;;;;4.10;3.70;;;20.40;95.80;;;;;;4857529;29;20489;-82
2022/05/18 03:50:14;;;;;;;7.97;3.97;;;20.40;95.80;;;;;;4856192;29;20467;-83
2022/05/18 03:52:40;;;;;;;4.00;3.77;;;20.40;95.70;;;;;;4864389;29;20455;-84
2022/05/18 03:55:23;;;;;;;5.10;4.13;;;20.50;95.70;;;;;;4880618;29;20958;-85
2022/05/18 03:57:50;;;;;;;7.13;4.03;;;20.30;95.70;;;;;;4860769;29;20499;-83
2022/05/18 04:00:18;;;;;;;4.90;4.43;;;20.10;96.10;;;;;;4860246;29;20473;-84
2022/05/18 04:02:47;;;;;;;8.60;4.60;;;20.10;96.40;;;;;;4862292;29;21177;-82
2022/05/18 04:05:27;;;;;;;7.90;4.63;;;20.00;96.30;;;;;;4860565;29;20497;-84
2022/05/18 04:07:54;;;;;;;5.97;5.13;;;20.10;96.50;;;;;;4860491;29;20453;-85
2022/05/18 04:10:38;;;;;;;6.63;4.30;;;20.10;96.50;;;;;;4861311;29;20461;-82
2022/05/18 04:13:16;;;;;;;4.83;4.37;;;20.00;96.80;;;;;;4863604;29;20454;-84
2022/05/18 04:15:45;;;;;;;7.27;4.43;;;20.20;96.80;;;;;;4863055;29;20485;-85
2022/05/18 04:18:12;;;;;;;4.67;4.20;;;20.40;96.50;;;;;;4859943;29;20468;-82
2022/05/18 04:20:40;;;;;;;6.67;5.00;;;20.50;96.20;;;;;;4873468;29;20465;-86
2022/05/18 04:23:07;;;;;;;6.53;5.03;;;20.50;96.00;;;;;;4881214;29;20480;-87
2022/05/18 04:25:36;;;;;;;4.20;3.80;;;20.50;95.70;;;;;;4877514;29;20495;-84
2022/05/18 04:28:03;;;;;;;8.93;5.03;;;20.40;95.90;;;;;;4849679;29;20473;-84
2022/05/18 04:30:30;;;;;;;6.03;4.47;;;20.60;95.80;;;;;;4879916;29;20466;-86
2022/05/18 04:32:58;;;;;;;5.20;4.30;;;20.60;95.60;;;;;;4874935;29;20456;-89
2022/05/18 04:35:28;;;;;;;6.73;4.70;;;20.40;95.60;;;;;;4879440;29;20571;-85
2022/05/18 04:37:58;;;;;;;9.67;5.20;;;20.40;95.90;;;;;;4865816;29;20572;-84
2022/05/18 04:40:25;;;;;;;7.27;5.70;;;20.40;95.80;;;;;;4850469;29;21000;-84
2022/05/18 04:42:52;;;;;;;7.00;4.83;;;20.40;95.70;;;;;;4863428;29;20488;-86
2022/05/18 04:45:21;;;;;;;8.90;5.37;;;20.30;96.10;;;;;;4855441;29;20539;-81
2022/05/18 04:47:49;;;;;;;15.17;5.63;;;20.50;96.00;;;;;;4859485;29;20654;-83
2022/05/18 04:50:17;;;;;;;8.90;4.97;;;20.50;95.90;;;;;;4859559;29;20565;-85
2022/05/18 04:52:44;;;;;;;9.90;5.37;;;20.50;95.70;;;;;;4869663;29;20473;-87
2022/05/18 04:55:11;;;;;;;6.07;4.70;;;20.40;96.10;;;;;;4860528;29;20749;-83
2022/05/18 04:57:38;;;;;;;6.43;5.10;;;20.70;95.60;;;;;;4856076;29;20460;-84
2022/05/18 05:00:07;;;;;;;7.03;4.87;;;20.60;95.40;;;;;;4860874;29;20467;-86
2022/05/18 05:02:35;;;;;;;4.97;4.33;;;20.60;95.70;;;;;;4857657;29;20948;-84
2022/05/18 05:05:05;;;;;;;7.10;5.47;;;20.50;95.70;;;;;;4859093;29;20489;-83
2022/05/18 05:07:32;;;;;;;8.97;4.83;;;20.50;96.00;;;;;;4861185;29;20492;-85
2022/05/18 05:09:59;;;;;;;9.40;4.90;;;20.40;96.00;;;;;;4862326;29;21076;-81
2022/05/18 05:12:26;;;;;;;7.20;4.73;;;20.40;96.20;;;;;;4860496;29;20465;-85
2022/05/18 05:14:53;;;;;;;7.13;5.33;;;20.50;96.10;;;;;;4863568;29;20569;-86
2022/05/18 05:17:20;;;;;;;5.40;5.00;;;20.40;96.10;;;;;;4865202;29;20472;-87
2022/05/18 05:19:47;;;;;;;5.93;4.57;;;20.50;96.10;;;;;;4866230;29;20496;-86
2022/05/18 05:22:14;;;;;;;7.00;4.73;;;20.50;96.20;;;;;;4869880;29;20469;-84
2022/05/18 05:24:40;;;;;;;7.00;4.87;;;20.60;95.90;;;;;;4864564;29;20588;-85
2022/05/18 05:27:07;;;;;;;6.10;4.57;;;20.70;95.80;;;;;;4860367;29;20473;-85
2022/05/18 05:29:33;;;;;;;6.90;4.80;;;20.80;95.40;;;;;;4865916;29;20473;-84
2022/05/18 05:32:07;;;;;;;5.87;4.27;;;20.90;95.40;;;;;;4861709;29;20468;-86
2022/05/18 05:34:35;;;;;;;6.30;4.13;;;20.90;95.20;;;;;;4866193;29;20537;-87
2022/05/18 05:37:02;;;;;;;7.90;4.60;;;21.00;95.10;;;;;;4867710;29;20468;-86
2022/05/18 05:39:32;;;;;;;5.53;4.63;;;21.00;95.10;;;;;;4865815;29;20465;-86
2022/05/18 05:41:59;;;;;;;6.30;4.20;;;21.10;95.20;;;;;;4866704;29;20481;-83
2022/05/18 05:44:26;;;;;;;4.20;3.80;;;21.30;95.00;;;;;;4868942;29;20476;-83
2022/05/18 05:46:53;;;;;;;5.13;3.93;;;21.40;94.90;;;;;;4859803;29;20484;-85
2022/05/18 05:49:20;;;;;;;6.60;4.47;;;21.40;94.30;;;;;;4859616;29;20568;-85
2022/05/18 05:51:47;;;;;;;7.10;5.20;;;21.40;94.30;;;;;;4868719;29;20453;-83
2022/05/18 05:54:14;;;;;;;5.63;4.67;;;21.50;94.10;;;;;;4868345;29;20454;-85
2022/05/18 05:56:41;;;;;;;8.77;4.57;;;21.50;93.80;;;;;;4867888;29;20484;-86
2022/05/18 05:59:08;;;;;;;7.63;4.70;;;21.60;93.70;;;;;;4857825;29;20469;-84
2022/05/18 06:01:35;;;;;;;6.20;5.10;;;21.30;93.90;;;;;;4857737;29;20471;-85
2022/05/18 06:04:03;;;;;;;12.00;6.30;;;21.30;94.20;;;;;;4863584;29;20606;-85
2022/05/18 06:06:30;;;;;;;9.70;5.77;;;21.20;94.20;;;;;;4864609;29;20497;-85
2022/05/18 06:08:58;;;;;;;9.37;6.17;;;21.70;94.00;;;;;;4859267;29;20561;-85
2022/05/18 06:11:27;;;;;;;6.77;4.70;;;21.90;93.30;;;;;;4858911;29;20462;-82
2022/05/18 06:13:53;;;;;;;6.23;4.00;;;21.70;92.80;;;;;;4876735;29;20475;-86
2022/05/18 06:16:20;;;;;;;4.27;3.87;;;21.30;93.70;;;;;;4865524;29;20477;-84
2022/05/18 06:18:47;;;;;;;6.23;4.00;;;21.70;93.50;;;;;;4864541;29;20472;-84
2022/05/18 06:21:16;;;;;;;5.60;3.90;;;21.60;93.00;;;;;;4860025;29;20461;-85
2022/05/18 06:23:43;;;;;;;6.83;3.83;;;21.60;93.20;;;;;;4861793;29;20480;-83
2022/05/18 06:26:10;;;;;;;4.37;3.97;;;21.50;93.40;;;;;;4860144;29;21033;-88
2022/05/18 06:28:37;;;;;;;6.40;4.03;;;21.50;93.40;;;;;;4883071;29;20465;-83
2022/05/18 06:31:06;;;;;;;7.03;4.67;;;21.50;93.50;;;;;;4870291;29;20500;-86
2022/05/18 06:33:35;;;;;;;5.67;3.90;;;21.40;93.30;;;;;;4870825;29;20546;-86
2022/05/18 06:36:05;;;;;;;6.93;4.50;;;21.60;93.20;;;;;;4870931;29;20480;-85
2022/05/18 06:38:32;;;;;;;6.07;3.67;;;22.00;92.60;;;;;;4869687;29;20537;-86
2022/05/18 06:43:44;;;;;;;5.93;4.70;;;22.20;92.30;;;;;;4862448;29;20467;-85
2022/05/18 06:46:11;;;;;;;7.20;4.60;;;22.00;92.40;;;;;;4860287;29;20496;-85
2022/05/18 06:48:40;;;;;;;4.50;4.10;;;22.20;92.50;;;;;;4860722;29;20524;-83
2022/05/18 06:51:14;;;;;;;4.20;3.80;;;22.30;92.30;;;;;;4862370;29;20495;-84
2022/05/18 06:53:41;;;;;;;4.20;3.53;;;22.20;92.10;;;;;;4861693;29;20792;-83
2022/05/18 06:56:08;;;;;;;4.00;3.60;;;22.40;91.70;;;;;;4864739;29;22367;-83
2022/05/18 06:58:35;;;;;;;7.23;4.67;;;22.50;91.50;;;;;;4860335;29;21020;-86
2022/05/18 07:01:07;;;;;;;4.10;3.77;;;22.40;91.60;;;;;;4859957;29;20461;-85
2022/05/18 07:03:34;;;;;;;4.10;3.53;;;22.60;91.50;;;;;;4859642;29;20461;-83
2022/05/18 07:06:03;;;;;;;4.23;3.63;;;22.60;91.20;;;;;;4874974;29;20565;-85
2022/05/18 07:08:30;;;;;;;4.53;3.80;;;22.60;91.10;;;;;;4865726;29;20460;-85
2022/05/18 07:10:57;;;;;;;4.07;3.67;;;22.80;91.30;;;;;;4860877;29;21087;-85
2022/05/18 07:13:23;;;;;;;4.00;3.70;;;22.80;90.70;;;;;;4864876;29;20448;-84
2022/05/18 07:15:50;;;;;;;5.20;3.70;;;22.90;90.50;;;;;;4875878;29;20484;-82
2022/05/18 07:18:17;;;;;;;4.10;3.80;;;22.80;90.50;;;;;;4861998;29;20477;-85
2022/05/18 07:20:44;;;;;;;4.00;3.60;;;22.70;90.80;;;;;;4865605;29;20465;-85
2022/05/18 07:23:11;;;;;;;4.13;3.83;;;22.90;90.60;;;;;;4883291;29;20461;-84
2022/05/18 07:25:40;;;;;;;4.97;3.40;;;23.30;89.80;;;;;;4882337;29;20575;-84
2022/05/18 07:28:06;;;;;;;3.37;3.10;;;23.40;89.20;;;;;;4863792;29;20583;-86
2022/05/18 07:30:50;;;;;;;4.10;3.70;;;23.50;87.90;;;;;;4873822;29;20468;-83
2022/05/18 07:33:18;;;;;;;4.30;3.90;;;23.50;89.10;;;;;;4860142;29;20461;-85
2022/05/18 07:35:45;;;;;;;3.80;3.47;;;23.40;88.90;;;;;;4859510;29;20596;-86
2022/05/18 07:38:12;;;;;;;4.40;4.10;;;23.60;88.90;;;;;;4857889;29;20453;-84
2022/05/18 07:40:59;;;;;;;5.57;3.30;;;23.90;86.90;;;;;;4861068;29;20462;-86
2022/05/18 07:43:27;;;;;;;4.57;3.57;;;24.10;85.90;;;;;;4860343;29;20513;-83
2022/05/18 07:45:55;;;;;;;5.83;3.17;;;24.20;86.30;;;;;;4850883;29;20491;-84
2022/05/18 07:48:23;;;;;;;5.33;3.20;;;24.00;86.00;;;;;;4861531;29;20970;-86
2022/05/18 07:50:51;;;;;;;4.10;3.67;;;24.00;86.70;;;;;;4858359;29;20461;-87
2022/05/18 07:53:18;;;;;;;4.80;3.80;;;24.30;85.10;;;;;;4858822;29;20448;-86
2022/05/18 07:55:46;;;;;;;3.70;3.30;;;24.40;83.80;;;;;;4857343;29;20508;-85
2022/05/18 07:58:15;;;;;;;9.13;4.13;;;24.10;84.00;;;;;;4859157;29;20468;-85
2022/05/18 08:00:42;;;;;;;4.93;3.57;;;24.10;85.30;;;;;;4856059;29;20476;-84
2022/05/18 08:03:09;;;;;;;5.60;3.60;;;24.60;83.50;;;;;;4862616;29;20674;-86
2022/05/18 08:05:37;;;;;;;4.03;3.60;;;24.40;83.70;;;;;;4863173;29;20584;-86
2022/05/18 08:08:12;;;;;;;3.80;3.37;;;25.80;79.90;;;;;;4865825;29;20476;-88
2022/05/18 08:16:14;;;;;;;3.97;3.60;;;27.70;71.20;;;;;;4862963;29;20480;-85
2022/05/18 08:18:42;;;;;;;3.43;3.13;;;27.30;70.00;;;;;;4858977;29;20567;-85
2022/05/18 08:21:08;;;;;;;4.33;3.20;;;26.70;71.10;;;;;;4859274;29;20480;-83
2022/05/18 08:23:35;;;;;;;4.23;2.90;;;27.10;70.60;;;;;;4861265;29;20464;-86
2022/05/18 08:26:03;;;;;;;2.73;2.53;;;27.70;69.00;;;;;;4861750;29;20484;-86
2022/05/18 08:28:30;;;;;;;4.13;3.00;;;29.30;63.60;;;;;;4861119;29;20808;-88
2022/05/18 08:30:57;;;;;;;3.90;2.93;;;30.40;59.10;;;;;;4864290;29;20551;-85
2022/05/18 08:33:23;;;;;;;3.10;2.90;;;30.80;57.70;;;;;;4878528;29;20453;-88
2022/05/18 08:35:56;;;;;;;4.00;2.93;;;31.60;55.90;;;;;;4860804;29;20490;-86
2022/05/18 08:38:22;;;;;;;3.73;3.20;;;33.20;52.60;;;;;;4859842;29;20472;-86
2022/05/18 08:40:58;;;;;;;2.63;2.33;;;34.00;50.30;;;;;;4865064;29;20461;-84
2022/05/18 08:43:59;;;;;;;2.93;2.60;;;33.90;48.90;;;;;;4863207;29;20453;-89
2022/05/18 08:47:00;;;;;;;3.10;2.73;;;34.10;48.30;;;;;;4850843;29;20488;-83
2022/05/18 08:49:36;;;;;;;2.80;2.60;;;33.70;48.30;;;;;;4866033;29;20459;-86
2022/05/18 08:52:33;;;;;;;4.50;2.67;;;34.80;46.90;;;;;;4865290;29;20821;-85
2022/05/18 08:55:19;;;;;;;2.47;2.27;;;34.70;45.20;;;;;;4860824;29;20479;-86
2022/05/18 08:57:48;;;;;;;3.20;2.83;;;34.60;45.20;;;;;;4867474;29;21189;-87
2022/05/18 09:00:24;;;;;;;3.00;2.73;;;35.00;44.80;;;;;;4873197;29;20459;-85
2022/05/18 09:03:09;;;;;;;4.20;2.77;;;35.80;43.70;;;;;;4865422;29;20461;-85
2022/05/18 09:05:57;;;;;;;4.57;2.67;;;35.70;42.90;;;;;;4866874;29;20493;-87
2022/05/18 09:10:12;;;;;;;2.97;2.40;;;35.90;43.00;;;;;;4865520;29;20480;-85
2022/05/18 09:11:41;;;;;;;3.30;3.00;;;36.10;42.20;;;;;;4862308;29;20555;-86
2022/05/18 09:14:10;;;;;;;2.57;2.37;;;35.20;42.90;;;;;;4861349;29;20473;-85
2022/05/18 09:16:52;;;;;;;4.60;2.90;;;35.30;43.00;;;;;;4865655;29;21047;-84
2022/05/18 09:19:57;;;;;;;2.90;2.60;;;35.70;42.50;;;;;;4859365;29;20453;-88
2022/05/18 09:22:38;;;;;;;3.43;2.73;;;35.40;42.00;;;;;;4875220;29;20458;-85
2022/05/18 09:25:32;;;;;;;2.43;2.20;;;35.20;42.40;;;;;;4860274;29;20580;-84
2022/05/18 09:28:15;;;;;;;2.97;2.70;;;34.70;42.40;;;;;;4875600;29;20518;-90
2022/05/18 09:30:59;;;;;;;2.60;2.10;;;34.30;44.50;;;;;;4864329;29;20453;-84
2022/05/18 09:33:48;;;;;;;3.63;2.50;;;35.40;41.60;;;;;;4856066;29;20470;-84
2022/05/18 09:36:30;;;;;;;3.17;2.87;;;35.40;41.60;;;;;;4855667;29;20547;-83
2022/05/18 09:39:10;;;;;;;2.70;2.47;;;35.70;41.20;;;;;;4874260;29;20464;-85
2022/05/18 09:42:11;;;;;;;2.60;2.10;;;35.60;41.00;;;;;;4861540;29;20545;-85
2022/05/18 09:44:54;;;;;;;3.30;2.80;;;35.50;40.90;;;;;;4861962;29;20481;-86
2022/05/18 09:47:24;;;;;;;3.27;2.97;;;35.90;40.90;;;;;;4862158;29;21987;-83
2022/05/18 09:49:59;;;;;;;2.77;2.47;;;35.50;40.60;;;;;;4863777;29;20545;-85
2022/05/18 09:52:28;;;;;;;2.47;2.27;;;35.10;41.10;;;;;;4866180;29;20457;-86
2022/05/18 09:55:01;;;;;;;4.03;2.83;;;35.10;41.30;;;;;;4860564;29;20456;-86
2022/05/18 09:57:34;;;;;;;2.73;2.53;;;34.90;41.30;;;;;;4879118;29;20466;-84
2022/05/18 10:00:11;;;;;;;3.40;3.10;;;34.80;41.50;;;;;;4873541;29;20537;-86
2022/05/18 10:08:44;;;;;;;3.07;2.50;;;35.00;41.40;;;;;;4876365;29;20460;-86
2022/05/18 10:11:19;;;;;;;3.63;2.50;;;34.70;40.90;;;;;;4873421;29;20470;-86
2022/05/18 10:14:00;;;;;;;3.37;3.07;;;33.60;43.10;;;;;;4880824;29;20974;-86
2022/05/18 10:21:11;;;;;;;;;;;;;;;;;;;;;
2022/05/18 18:37:42;;;;;;;3.00;2.57;;;29.60;46.10;;;;;;4799091;29;20471;-87
2022/05/18 18:41:11;;;;;;;;;;;;;;;;;;;;;
2022/05/18 19:24:35;;;;;;;;;;;;;;;;;;;;;
2022/05/18 19:36:53;;;;;;;;;;;;;;;;;;;;;
2022/05/18 20:22:56;;;;;;;;;;;;;;;;;;;;;
2022/05/18 20:35:37;;;;;;;4.10;2.53;;;27.10;53.60;;;;;;4802208;29;20632;-87
2022/05/18 20:47:25;;;;;;;;;;;;;;;;;;;;;
2022/05/18 21:03:18;;;;;;;;;;;;;;;;;;;;;
2022/05/18 23:10:00;;;;;;;5.73;5.10;;;25.30;60.20;;;;;;4874651;29;20594;-87
2022/05/18 23:40:24;;;;;;;;;;;;;;;;;;;;;
